Airfield :
LOGIN :

Register | Disclaimer

   EN    FR    IT 

 










Legend :    VFR   Marginal VFR   IFR   Intensive IFR   Very Intensive IFR
Visi :
Ceiling :
>= 8 km
>= 3000ft
5 to 8 km
1000 to 3000 ft
1500m to 5 km
500 to 1000 ft
800 to 1500m
200 to 500 ft
< 800m
< 200 ft
Symbols :   Thunderstorms  Fog  Heavy snow  Heavy precipitations  Wind > 20 kt
SIGMETs :     Misc.  Thunderstorms  Icing  Turbulence  Mountain Waves  Volcanic Ashes







- Airport Elevation : 3360 ft
- IATA code : QSF


DAAS - 8 Mai 45

CURRENT METAR :
  • 222200Z 06004KT CAVOK 20/12 Q1022

EXPIRED METARs :
  • 222100Z 04004KT CAVOK 21/10 Q1021
  • 222000Z 06005KT CAVOK 21/11 Q1021

TAF TAF DAAS
Valid from the 22 at 18:00 until the 23 at 18:00 UTC


221700Z 2218/2318 31013KT 9999 BKN030
PROB40
TEMPO 2218/2221 5000 RA FEW023TCU
BECMG 2220/2222 25008KT
BECMG 2311/2313 34012KT
PROB30
TEMPO 2312/2318 FEW023TCU
No reported NOTAMs for that airfield.
2 SIGMETs reported for the Alger FIR (DAAA) :
 
Embedded thunderstorms
DAAA SIGMET 5 VALID 222200/230100 DAMM
DAAA ALGER FIR EMBD TS OBS WI N3653 E00041 - N3525 E00201 - N3406 E00435 - N3251 E00038 - N3344 W00025 - N3505 W00113 - N3653 E00041 TOP FL320 MOV STNR NC=
Embedded thunderstorms
DAAA SIGMET 3 VALID 221800/222200 DAMM
DAAA ALGER FIR EMBD TS OBS WI N3653 E00041 - N3525 E00201 - N3406 E00435 - N3251 E00038 - N3333 W00131 - N3552 W00215 - N3653 E00041 TOP FL320 MOV E NC=



MET'MAP, your aeronautical weather chart ! - Copyright ORBIFLY December 2007 - Disclaimer

ORBIFLY MET'MAP TEAM :

Programming & Development : Alexandra Zaïnal
Concept & Development : Baudouin d'Aumeries
Co-Development & Prog : Marc-Olivier Méhu
Technical & hardware support : Manuel Goepfert

Contact : metmap@orbifly.com




SOURCES & CREDITS :

   NOAA